Gassaway, WV

1:59 AM EDT on July 26, 2016 (GMT -0400)
Frame Circle | | Change Station

Elev 890 ft 38.66 °N, 80.75 °W | Updated 6 seconds ago

Partly Cloudy
Partly Cloudy
73.1 °F
Feels Like 70 °F
N
0.0
Wind Variable Wind from North
Gusts 0.0 mph

Today
High -- | Low -- °F
--% Chance of Precip.
Yesterday
High -- | Low -- °F
Precip. -- in
Pressure 29.99 in
Visibility 10.0 miles
Clouds Few 25000 ft
Heat Index 70 °F
Dew Point 71 °F
Humidity 92%
Rainfall 0.00 in
Snow Depth Not available.
6:19 AM 8:39 PM
Waning Gibbous, 58% visible
METAR KCRW 260554Z 23004KT 10SM FEW250 25/22 A3002 RMK AO2 SLP153 T02500217 10300 20250 55001
Pressure 29.99 in
Visibility 10.0 miles
Clouds Few 25000 ft
Heat Index 70 °F
Dew Point 71 °F
Humidity 92%
Rainfall 0.00 in
Snow Depth Not available.
6:19 AM 8:39 PM
Waning Gibbous, 58% visible
METAR KCRW 260554Z 23004KT 10SM FEW250 25/22 A3002 RMK AO2 SLP153 T02500217 10300 20250 55001

10-Day Weather Forecast

Almanac

Astronomy

Jul. 26, 2016 Rise Set
Actual Time
Civil Twilight
Nautical Twilight
Astronomical Twilight
Moon
Length of Visible Light
Length of Day
Tomorrow will be .
, % of the Moon is Illuminated

Today's Extremes

State Highs State Lows

Community

WunderPhotos

Upload Photos

1,927,547 photos uploaded!

WunderBlog® & News

Nearby

Air Quality

  Air Quality AQ Index Pollutant
Not available.

Snow Depth

Station Depth Elevation

Earthquake Activity

City Distance Mag. Time & Date
Minimum magnitude displayed is 2.5.

Coastal Water Temperatures

Place Temperature

Stations

Nearby Weather Stations

Station Location Temp. Windchill Dew Point Humidity Wind Precip. Elev Updated Type
                   

Watches & Warnings

There are currently no watches in effect.